createdAt,value
2022-10-07T00:01:18.384Z,4.32
2022-10-07T00:03:46.638Z,4.90
2022-10-07T00:06:16.862Z,4.38
2022-10-07T00:08:46.992Z,3.92
2022-10-07T00:11:17.933Z,4.05
2022-10-07T00:13:49.573Z,4.25
2022-10-07T00:16:20.411Z,3.95
2022-10-07T00:18:49.867Z,3.90
2022-10-07T00:21:20.414Z,4.07
2022-10-07T00:23:49.422Z,4.20
2022-10-07T00:26:20.414Z,4.72
2022-10-07T00:28:50.770Z,3.80
2022-10-07T00:31:22.531Z,3.40
2022-10-07T00:33:51.443Z,4.18
2022-10-07T00:36:24.196Z,3.72
2022-10-07T00:38:52.958Z,3.95
2022-10-07T00:41:23.707Z,4.00
2022-10-07T00:43:54.120Z,3.65
2022-10-07T00:46:29.430Z,4.35
2022-10-07T00:49:00.698Z,4.88
2022-10-07T00:51:29.597Z,5.00
2022-10-07T00:53:58.149Z,4.90
2022-10-07T00:56:28.609Z,4.57
2022-10-07T00:59:00.019Z,4.70
2022-10-07T01:01:29.110Z,4.37
2022-10-07T01:03:57.260Z,4.10
2022-10-07T01:06:25.836Z,4.32
2022-10-07T01:08:55.544Z,4.10
2022-10-07T01:11:36.901Z,3.80
2022-10-07T01:14:12.686Z,3.33
2022-10-07T01:16:50.150Z,3.60
2022-10-07T01:19:43.626Z,3.80
2022-10-07T01:22:23.131Z,3.90
2022-10-07T01:25:00.852Z,4.47
2022-10-07T01:27:31.353Z,4.18
2022-10-07T01:30:04.095Z,5.50
2022-10-07T01:32:37.003Z,4.53
2022-10-07T01:35:09.492Z,4.55
2022-10-07T01:37:42.435Z,4.35
2022-10-07T01:40:16.436Z,4.07
2022-10-07T01:42:47.004Z,4.18
2022-10-07T01:45:21.363Z,3.85
2022-10-07T01:47:50.925Z,4.40
2022-10-07T01:50:22.150Z,4.30
2022-10-07T01:53:17.472Z,4.15
2022-10-07T01:55:52.780Z,3.63
2022-10-07T01:58:36.149Z,3.35
2022-10-07T02:01:13.243Z,3.50
2022-10-07T02:04:05.474Z,4.13
2022-10-07T02:06:44.352Z,3.65
2022-10-07T02:09:22.313Z,4.28
2022-10-07T02:11:56.305Z,3.65
2022-10-07T02:14:32.964Z,3.85
2022-10-07T02:17:07.706Z,4.05
2022-10-07T02:19:40.421Z,3.50
2022-10-07T02:22:10.138Z,3.97
2022-10-07T02:24:40.860Z,3.90
2022-10-07T02:27:13.878Z,3.95
2022-10-07T02:29:47.192Z,3.47
2022-10-07T02:32:19.035Z,3.53
2022-10-07T02:34:54.983Z,3.13
2022-10-07T02:37:29.072Z,3.05
2022-10-07T02:39:58.450Z,3.70
2022-10-07T02:42:32.527Z,3.67
2022-10-07T02:45:10.450Z,3.17
2022-10-07T02:47:45.257Z,3.00
2022-10-07T02:50:18.298Z,3.63
2022-10-07T02:52:47.174Z,3.70
2022-10-07T02:55:22.617Z,3.63
2022-10-07T02:57:53.597Z,3.67
2022-10-07T03:00:24.557Z,2.80
2022-10-07T03:02:55.305Z,3.25
2022-10-07T03:05:26.379Z,3.25
2022-10-07T03:07:57.860Z,3.85
2022-10-07T03:10:27.296Z,3.30
2022-10-07T03:12:55.849Z,3.30
2022-10-07T03:15:27.853Z,3.33
2022-10-07T03:17:55.895Z,2.83
2022-10-07T03:20:24.639Z,3.60
2022-10-07T03:22:52.741Z,3.30
2022-10-07T03:25:21.301Z,2.75
2022-10-07T03:27:49.547Z,3.33
2022-10-07T03:30:24.254Z,2.90
2022-10-07T03:32:55.556Z,2.85
2022-10-07T03:35:23.644Z,3.22
2022-10-07T03:37:52.163Z,2.93
2022-10-07T03:40:20.419Z,3.15
2022-10-07T03:42:50.480Z,3.15
2022-10-07T03:45:20.869Z,2.53
2022-10-07T03:47:49.401Z,2.83
2022-10-07T03:50:19.429Z,2.83
2022-10-07T03:52:47.536Z,2.88
2022-10-07T03:55:16.811Z,2.90
2022-10-07T03:57:59.149Z,3.45
2022-10-07T04:00:28.586Z,3.35
2022-10-07T04:02:56.820Z,3.27
2022-10-07T04:05:26.864Z,3.53
2022-10-07T04:07:54.987Z,2.95
2022-10-07T04:10:23.555Z,3.75
2022-10-07T04:12:52.432Z,3.65
2022-10-07T04:15:20.844Z,3.47
2022-10-07T04:17:50.464Z,3.80
2022-10-07T04:20:19.232Z,4.10
2022-10-07T04:22:49.131Z,3.50
2022-10-07T04:25:35.323Z,3.85
2022-10-07T04:28:06.247Z,3.70
2022-10-07T04:30:40.148Z,3.80
2022-10-07T04:33:09.210Z,3.97
2022-10-07T04:35:39.386Z,4.22
2022-10-07T04:38:11.640Z,4.05
2022-10-07T04:40:41.650Z,4.00
2022-10-07T04:43:24.306Z,3.92
2022-10-07T04:45:55.177Z,3.83
2022-10-07T04:48:24.701Z,4.07
2022-10-07T04:50:53.399Z,3.60
2022-10-07T04:53:24.093Z,3.63
2022-10-07T04:55:52.531Z,3.40
2022-10-07T04:58:21.499Z,3.72
2022-10-07T05:00:51.749Z,3.72
2022-10-07T05:03:22.153Z,3.90
2022-10-07T05:05:52.830Z,3.65
2022-10-07T05:08:25.533Z,3.88
2022-10-07T05:10:57.287Z,3.78
2022-10-07T05:13:26.757Z,4.05
2022-10-07T05:15:56.966Z,3.78
2022-10-07T05:18:27.059Z,3.80
2022-10-07T05:21:01.831Z,3.53
2022-10-07T05:23:45.370Z,3.67
2022-10-07T05:26:14.297Z,3.70
2022-10-07T05:28:44.509Z,3.80
2022-10-07T05:31:14.581Z,3.60
2022-10-07T05:33:44.051Z,3.42
2022-10-07T05:36:13.036Z,3.45
2022-10-07T05:38:43.199Z,4.65
2022-10-07T05:41:12.469Z,7.97
2022-10-07T05:43:43.693Z,8.30
2022-10-07T05:46:13.723Z,8.68
2022-10-07T05:48:42.158Z,8.25
2022-10-07T05:51:10.267Z,10.55
2022-10-07T05:53:41.302Z,8.77
2022-10-07T05:56:13.649Z,8.90
2022-10-07T05:58:41.796Z,8.73
2022-10-07T06:01:15.536Z,6.50
2022-10-07T06:03:44.396Z,4.93
2022-10-07T06:06:12.476Z,5.25
2022-10-07T06:08:40.609Z,4.38
2022-10-07T06:11:29.277Z,5.47
2022-10-07T06:13:57.482Z,5.30
2022-10-07T06:16:25.998Z,5.05
2022-10-07T06:18:55.130Z,4.60
2022-10-07T06:21:28.210Z,5.45
2022-10-07T06:23:57.941Z,11.77
2022-10-07T06:26:28.363Z,7.65
2022-10-07T06:28:56.482Z,5.50
2022-10-07T06:31:25.871Z,5.90
2022-10-07T06:33:54.819Z,5.45
2022-10-07T06:36:23.312Z,4.82
2022-10-07T06:38:53.527Z,4.18
2022-10-07T06:41:22.881Z,3.53
2022-10-07T06:43:57.258Z,3.95
2022-10-07T06:46:25.965Z,4.03
2022-10-07T06:48:54.267Z,3.80
2022-10-07T06:51:23.611Z,5.43
2022-10-07T06:53:55.018Z,5.55
2022-10-07T06:56:23.118Z,5.53
2022-10-07T06:58:52.638Z,7.13
2022-10-07T07:01:21.336Z,5.38
2022-10-07T07:03:49.488Z,4.43
2022-10-07T07:06:18.594Z,3.85
2022-10-07T07:08:49.982Z,4.00
2022-10-07T07:11:37.735Z,4.90
2022-10-07T07:14:08.041Z,4.35
2022-10-07T07:16:37.003Z,4.05
2022-10-07T07:19:09.056Z,4.15
2022-10-07T07:21:40.896Z,3.58
2022-10-07T07:24:09.901Z,4.20
2022-10-07T07:26:39.951Z,4.05
2022-10-07T07:29:10.250Z,4.38
2022-10-07T07:31:38.735Z,4.28
2022-10-07T07:34:11.813Z,4.15
2022-10-07T07:36:43.978Z,4.72
2022-10-07T07:39:16.297Z,4.72
2022-10-07T07:41:48.210Z,6.07
2022-10-07T07:44:19.432Z,5.82
2022-10-07T07:46:51.853Z,5.65
2022-10-07T07:49:21.139Z,4.80
2022-10-07T07:51:49.819Z,4.72
2022-10-07T07:54:19.029Z,4.40
2022-10-07T07:56:47.625Z,4.90
2022-10-07T07:59:17.549Z,4.82
2022-10-07T08:01:46.814Z,6.43
2022-10-07T08:04:16.600Z,6.55
2022-10-07T08:06:44.950Z,5.80
2022-10-07T08:09:13.593Z,5.25
2022-10-07T08:11:45.676Z,5.13
2022-10-07T08:14:14.690Z,4.90
2022-10-07T08:16:45.047Z,4.43
2022-10-07T08:19:14.046Z,4.78
2022-10-07T08:21:42.361Z,4.13
2022-10-07T08:24:14.925Z,4.57
2022-10-07T08:26:43.652Z,4.45
2022-10-07T08:29:13.299Z,4.53
2022-10-07T08:31:42.856Z,4.72
2022-10-07T08:34:12.964Z,5.57
2022-10-07T08:36:44.430Z,5.07
2022-10-07T08:39:13.323Z,5.72
2022-10-07T08:41:54.877Z,6.30
2022-10-07T08:44:29.316Z,5.63
2022-10-07T08:47:02.919Z,5.53
2022-10-07T08:49:49.857Z,5.90
2022-10-07T08:52:33.830Z,5.57
2022-10-07T08:55:04.273Z,5.07
2022-10-07T08:57:49.789Z,6.22
2022-10-07T09:00:22.679Z,4.97
2022-10-07T09:03:08.172Z,4.85
2022-10-07T09:05:42.014Z,4.85
2022-10-07T09:08:16.010Z,5.47
2022-10-07T09:10:48.627Z,5.15
2022-10-07T09:13:22.258Z,5.60
2022-10-07T09:15:55.705Z,5.28
2022-10-07T09:18:27.773Z,5.13
2022-10-07T09:20:57.983Z,5.38
2022-10-07T09:23:30.892Z,5.18
2022-10-07T09:25:58.980Z,5.65
2022-10-07T09:28:31.023Z,5.32
2022-10-07T09:31:03.321Z,5.47
2022-10-07T09:33:32.019Z,5.65
2022-10-07T09:36:09.949Z,5.55
2022-10-07T09:38:40.078Z,4.63
2022-10-07T09:41:17.978Z,5.65
2022-10-07T09:43:59.819Z,4.60
2022-10-07T09:46:40.246Z,4.78
2022-10-07T09:49:09.324Z,4.35
2022-10-07T09:51:40.158Z,4.70
2022-10-07T09:54:20.111Z,4.40
2022-10-07T09:56:49.208Z,4.35
2022-10-07T09:59:22.882Z,4.18
2022-10-07T10:01:53.146Z,4.55
2022-10-07T10:04:25.619Z,4.57
2022-10-07T10:07:00.211Z,4.07
2022-10-07T10:09:29.227Z,4.45
2022-10-07T10:12:20.006Z,5.05
2022-10-07T10:14:50.942Z,4.30
2022-10-07T10:17:29.992Z,4.65
2022-10-07T10:20:27.129Z,4.50
2022-10-07T10:22:57.241Z,4.30
2022-10-07T10:25:54.952Z,4.40
2022-10-07T10:28:36.452Z,4.28
2022-10-07T10:31:17.093Z,4.57
2022-10-07T10:33:52.482Z,4.40
2022-10-07T10:36:23.465Z,4.82
2022-10-07T10:39:01.891Z,4.63
2022-10-07T10:41:37.767Z,4.00
2022-10-07T10:44:31.116Z,4.53
2022-10-07T10:47:05.074Z,4.85
2022-10-07T10:49:39.271Z,4.57
2022-10-07T10:52:22.565Z,5.13
2022-10-07T10:55:12.403Z,5.10
2022-10-07T10:57:50.334Z,5.15
2022-10-07T11:00:20.535Z,5.10
2022-10-07T11:03:24.191Z,4.82
2022-10-07T11:05:54.929Z,4.78
2022-10-07T11:08:27.534Z,4.47
2022-10-07T11:10:59.911Z,4.35
2022-10-07T11:13:35.768Z,4.53
2022-10-07T11:16:12.023Z,4.30
2022-10-07T11:18:45.678Z,4.53
2022-10-07T11:21:18.798Z,4.80
2022-10-07T11:23:56.844Z,3.92
2022-10-07T11:26:35.015Z,4.55
2022-10-07T11:29:14.382Z,4.10
2022-10-07T11:31:46.892Z,4.18
2022-10-07T11:34:21.239Z,3.95
2022-10-07T11:36:57.845Z,4.47
2022-10-07T11:39:26.892Z,3.97
2022-10-07T11:42:02.682Z,4.38
2022-10-07T11:44:35.319Z,3.70
2022-10-07T11:47:07.577Z,3.95
2022-10-07T11:49:41.938Z,3.53
2022-10-07T11:52:13.723Z,3.78
2022-10-07T11:54:46.559Z,3.88
2022-10-07T11:57:24.825Z,3.50
2022-10-07T12:00:00.629Z,3.55
2022-10-07T12:02:44.434Z,3.28
2022-10-07T12:06:04.159Z,3.53
2022-10-07T12:08:35.057Z,3.50
2022-10-07T12:11:45.749Z,3.72
2022-10-07T12:14:43.124Z,3.42
2022-10-07T12:17:28.662Z,3.53
2022-10-07T12:20:35.054Z,3.67
2022-10-07T12:23:48.863Z,3.65
2022-10-07T12:26:54.628Z,3.40
2022-10-07T12:29:50.705Z,3.58
2022-10-07T12:32:41.867Z,3.85
2022-10-07T12:35:48.622Z,3.75
2022-10-07T12:38:30.575Z,3.10
2022-10-07T12:41:19.035Z,3.97
2022-10-07T12:43:52.855Z,3.90
2022-10-07T12:46:25.185Z,4.00
2022-10-07T12:48:59.582Z,3.90
2022-10-07T12:51:31.559Z,4.05
2022-10-07T12:54:01.517Z,3.13
2022-10-07T12:56:31.671Z,3.30
2022-10-07T12:59:45.131Z,3.50
2022-10-07T13:03:13.741Z,3.65
2022-10-07T13:06:27.257Z,3.65
2022-10-07T13:09:22.289Z,3.25
2022-10-07T13:12:28.391Z,3.40
2022-10-07T13:15:09.725Z,3.47
2022-10-07T13:17:52.257Z,3.55
2022-10-07T13:20:34.654Z,3.22
2022-10-07T13:23:08.021Z,3.10
2022-10-07T13:25:45.650Z,3.20
2022-10-07T13:28:16.956Z,3.17
2022-10-07T13:30:47.383Z,3.20
2022-10-07T13:33:31.415Z,3.33
2022-10-07T13:36:14.870Z,3.10
2022-10-07T13:38:42.994Z,3.05
2022-10-07T13:41:22.947Z,2.70
2022-10-07T13:43:54.200Z,3.20
2022-10-07T13:46:25.337Z,2.85
2022-10-07T13:48:56.365Z,3.00
2022-10-07T13:51:31.494Z,3.10
2022-10-07T13:54:01.366Z,2.72
2022-10-07T13:56:35.156Z,2.70
2022-10-07T13:59:07.214Z,3.08
2022-10-07T14:01:40.661Z,3.03
2022-10-07T14:04:20.247Z,2.65
2022-10-07T14:06:52.893Z,2.75
2022-10-07T14:09:26.410Z,2.55
2022-10-07T14:12:02.278Z,2.60
2022-10-07T14:14:36.470Z,2.60
2022-10-07T14:17:11.656Z,2.67
2022-10-07T14:19:40.726Z,2.45
2022-10-07T14:22:20.112Z,2.60
2022-10-07T14:25:02.040Z,2.50
2022-10-07T14:28:08.448Z,2.70
2022-10-07T14:30:57.286Z,2.60
2022-10-07T14:33:54.725Z,2.70
2022-10-07T14:36:23.861Z,2.20
2022-10-07T14:38:53.874Z,2.65
2022-10-07T14:41:24.216Z,2.50
2022-10-07T14:43:53.866Z,2.60
2022-10-07T14:46:26.963Z,2.50
2022-10-07T14:48:55.884Z,3.08
2022-10-07T14:51:27.376Z,2.10
2022-10-07T14:54:02.234Z,2.15
2022-10-07T14:56:32.524Z,2.33
2022-10-07T14:59:02.932Z,2.38
2022-10-07T15:01:31.036Z,2.45
2022-10-07T15:04:02.882Z,2.17
2022-10-07T15:06:31.558Z,2.35
2022-10-07T15:09:00.771Z,3.00
2022-10-07T15:11:29.122Z,2.42
2022-10-07T15:13:58.012Z,2.47
2022-10-07T15:16:29.819Z,2.63
2022-10-07T15:18:58.355Z,2.42
2022-10-07T15:21:26.450Z,2.70
2022-10-07T15:23:55.279Z,2.90
2022-10-07T15:26:25.341Z,3.30
2022-10-07T15:28:55.511Z,2.80
2022-10-07T15:31:24.846Z,2.72
2022-10-07T15:33:58.235Z,4.32
2022-10-07T15:36:27.166Z,3.95
2022-10-07T15:38:55.470Z,4.40
2022-10-07T15:41:35.091Z,4.07
2022-10-07T15:44:05.152Z,3.45
2022-10-07T15:46:34.573Z,2.92
2022-10-07T15:49:05.648Z,2.80
2022-10-07T15:51:36.783Z,2.42
2022-10-07T15:54:05.433Z,2.53
2022-10-07T15:56:33.761Z,3.35
2022-10-07T15:59:02.674Z,2.22
2022-10-07T16:01:32.355Z,2.33
2022-10-07T16:04:01.567Z,2.38
2022-10-07T16:06:33.300Z,2.28
2022-10-07T16:09:02.800Z,2.28
2022-10-07T16:11:33.562Z,2.20
2022-10-07T16:14:03.467Z,2.80
2022-10-07T16:16:32.610Z,2.67
2022-10-07T16:19:01.999Z,2.42
2022-10-07T16:21:33.371Z,2.80
2022-10-07T16:24:04.142Z,3.25
2022-10-07T16:26:33.875Z,3.00
2022-10-07T16:29:20.886Z,2.88
2022-10-07T16:31:50.910Z,2.70
2022-10-07T16:34:45.405Z,2.70
2022-10-07T16:37:15.390Z,3.35
2022-10-07T16:39:44.134Z,2.72
2022-10-07T16:42:12.238Z,2.85
2022-10-07T16:44:40.319Z,2.63
2022-10-07T16:47:08.447Z,2.40
2022-10-07T16:49:37.350Z,2.60
2022-10-07T16:52:06.471Z,3.00
2022-10-07T16:54:36.846Z,3.40
2022-10-07T16:57:05.359Z,2.88
2022-10-07T16:59:33.435Z,2.72
2022-10-07T17:02:03.222Z,2.70
2022-10-07T17:04:31.857Z,2.72
2022-10-07T17:06:59.970Z,3.30
2022-10-07T17:09:28.806Z,3.00
2022-10-07T17:11:59.522Z,2.90
2022-10-07T17:14:31.978Z,3.13
2022-10-07T17:17:00.546Z,2.75
2022-10-07T17:19:30.051Z,2.67
2022-10-07T17:21:59.638Z,2.65
2022-10-07T17:24:28.290Z,3.20
2022-10-07T17:26:58.836Z,2.90
2022-10-07T17:29:27.022Z,3.13
2022-10-07T17:31:55.731Z,3.28
2022-10-07T17:34:24.340Z,3.88
2022-10-07T17:36:53.385Z,2.80
2022-10-07T17:39:21.659Z,3.40
2022-10-07T17:41:50.577Z,3.22
2022-10-07T17:44:21.896Z,3.72
2022-10-07T17:46:50.380Z,4.22
2022-10-07T17:49:19.026Z,4.15
2022-10-07T17:51:47.094Z,3.78
2022-10-07T17:54:16.327Z,3.67
2022-10-07T17:56:48.127Z,3.38
2022-10-07T17:59:16.812Z,5.40
2022-10-07T18:01:46.367Z,4.22
2022-10-07T18:04:22.543Z,4.10
2022-10-07T18:06:52.791Z,4.78
2022-10-07T18:09:24.742Z,4.53
2022-10-07T18:12:10.106Z,5.03
2022-10-07T18:14:56.041Z,4.50
2022-10-07T18:17:25.532Z,4.65
2022-10-07T18:19:53.894Z,5.00
2022-10-07T18:22:22.538Z,5.40
2022-10-07T18:24:50.863Z,5.30
2022-10-07T18:27:25.910Z,5.60
2022-10-07T18:29:55.054Z,6.80
2022-10-07T18:32:25.297Z,6.60
2022-10-07T18:34:53.810Z,6.75
2022-10-07T18:37:23.909Z,7.03
2022-10-07T18:39:52.150Z,6.57
2022-10-07T18:42:20.327Z,6.05
2022-10-07T18:44:50.253Z,6.18
2022-10-07T18:47:18.363Z,5.60
2022-10-07T18:49:47.825Z,5.05
2022-10-07T18:52:15.933Z,5.28
2022-10-07T18:54:44.127Z,6.05
2022-10-07T18:57:12.160Z,6.32
2022-10-07T18:59:40.825Z,5.43
2022-10-07T19:02:12.485Z,5.57
2022-10-07T19:04:40.727Z,4.85
2022-10-07T19:07:10.852Z,4.93
2022-10-07T19:09:38.918Z,4.50
2022-10-07T19:12:27.889Z,4.47
2022-10-07T19:14:55.674Z,4.38
2022-10-07T19:17:24.177Z,3.95
2022-10-07T19:19:53.025Z,4.50
2022-10-07T19:22:22.509Z,4.75
2022-10-07T19:25:08.082Z,4.28
2022-10-07T19:27:36.159Z,4.40
2022-10-07T19:30:05.428Z,4.28
2022-10-07T19:32:34.153Z,4.80
2022-10-07T19:35:02.704Z,5.00
2022-10-07T19:37:32.146Z,4.35
2022-10-07T19:40:00.257Z,4.45
2022-10-07T19:42:28.732Z,4.45
2022-10-07T19:44:56.821Z,5.18
2022-10-07T19:47:25.545Z,4.88
2022-10-07T19:49:55.618Z,5.22
2022-10-07T19:52:24.660Z,5.10
2022-10-07T19:54:55.343Z,4.85
2022-10-07T19:57:23.398Z,5.03
2022-10-07T19:59:51.993Z,5.53
2022-10-07T20:02:20.156Z,5.10
2022-10-07T20:04:48.747Z,5.07
2022-10-07T20:07:18.085Z,5.90
2022-10-07T20:09:46.443Z,5.53
2022-10-07T20:12:16.419Z,5.93
2022-10-07T20:14:44.848Z,5.90
2022-10-07T20:17:12.937Z,5.90
2022-10-07T20:19:40.981Z,5.75
2022-10-07T20:22:09.467Z,5.50
2022-10-07T20:24:38.152Z,5.45
2022-10-07T20:27:06.460Z,5.63
2022-10-07T20:29:56.405Z,5.70
2022-10-07T20:32:24.726Z,5.57
2022-10-07T20:34:54.191Z,5.85
2022-10-07T20:37:22.540Z,5.82
2022-10-07T20:40:08.303Z,6.10
2022-10-07T20:42:36.362Z,6.28
2022-10-07T20:45:07.280Z,6.57
2022-10-07T20:47:36.103Z,5.55
2022-10-07T20:50:05.052Z,6.85
2022-10-07T20:52:36.422Z,8.02
2022-10-07T20:55:08.494Z,7.85
2022-10-07T20:57:38.448Z,7.47
2022-10-07T21:00:16.204Z,8.00
2022-10-07T21:02:46.139Z,7.90
2022-10-07T21:05:14.778Z,7.70
2022-10-07T21:07:44.735Z,7.38
2022-10-07T21:10:13.110Z,6.78
2022-10-07T21:12:41.180Z,8.18
2022-10-07T21:15:12.538Z,7.63
2022-10-07T21:17:44.317Z,8.02
2022-10-07T21:20:13.116Z,8.85
2022-10-07T21:22:41.252Z,7.95
2022-10-07T21:25:12.286Z,7.53
2022-10-07T21:27:40.799Z,8.13
2022-10-07T21:30:12.062Z,8.55
2022-10-07T21:32:40.245Z,9.52
2022-10-07T21:35:08.989Z,8.50
2022-10-07T21:37:37.106Z,10.43
2022-10-07T21:40:05.651Z,9.60
2022-10-07T21:42:33.762Z,9.70
2022-10-07T21:45:02.258Z,9.48
2022-10-07T21:47:31.672Z,10.55
2022-10-07T21:49:59.869Z,10.15
2022-10-07T21:52:27.973Z,9.70
2022-10-07T21:54:56.185Z,10.77
2022-10-07T21:57:24.786Z,9.73
2022-10-07T21:59:54.207Z,10.40
2022-10-07T22:02:22.342Z,10.50
2022-10-07T22:04:52.288Z,10.95
2022-10-07T22:07:37.796Z,11.23
2022-10-07T22:10:07.135Z,10.60
2022-10-07T22:12:35.493Z,10.23
2022-10-07T22:15:04.013Z,10.68
2022-10-07T22:17:34.824Z,9.30
2022-10-07T22:20:04.531Z,10.82
2022-10-07T22:22:33.018Z,11.98
2022-10-07T22:25:01.332Z,11.02
2022-10-07T22:27:29.824Z,11.25
2022-10-07T22:29:58.588Z,11.10
2022-10-07T22:32:27.115Z,11.18
2022-10-07T22:35:12.533Z,10.82
2022-10-07T22:37:42.538Z,11.82
2022-10-07T22:40:11.806Z,10.90
2022-10-07T22:42:39.868Z,12.15
2022-10-07T22:45:09.055Z,11.75
2022-10-07T22:47:37.512Z,11.95
2022-10-07T22:50:08.302Z,12.35
2022-10-07T22:52:36.856Z,12.23
2022-10-07T22:55:08.900Z,12.10
2022-10-07T22:57:37.557Z,12.13
2022-10-07T23:00:07.014Z,11.38
2022-10-07T23:02:35.684Z,12.20
2022-10-07T23:05:03.911Z,13.27
2022-10-07T23:07:32.728Z,12.05
2022-10-07T23:10:00.845Z,12.38
2022-10-07T23:12:30.823Z,11.95
2022-10-07T23:14:59.347Z,11.43
2022-10-07T23:17:28.104Z,13.35
2022-10-07T23:19:56.332Z,12.35
2022-10-07T23:22:24.889Z,11.55
2022-10-07T23:24:53.617Z,13.60
2022-10-07T23:27:22.031Z,12.63
2022-10-07T23:29:51.538Z,11.80
2022-10-07T23:32:20.466Z,12.13
2022-10-07T23:34:48.994Z,13.25
2022-10-07T23:37:17.743Z,13.32
2022-10-07T23:39:45.831Z,11.98
2022-10-07T23:42:14.312Z,13.38
2022-10-07T23:44:42.871Z,13.05
2022-10-07T23:47:12.796Z,12.60
2022-10-07T23:49:41.275Z,13.45
2022-10-07T23:52:09.606Z,13.18
2022-10-07T23:54:38.286Z,12.82
2022-10-07T23:57:06.383Z,13.50
2022-10-07T23:59:34.922Z,12.32
